FIA439 LEIB-LEPA
Flight info
| Callsign | FIA439 |
|---|---|
| Flight time | 0h 31m |
| Altitude | 110 |
| Route | LAMP4E LAMPA LAMP2P |
| Aircraft | A320/M-V/N |
Departure
| Time | 2026-05-04 19:15 |
|---|---|
| Airport | Ibiza Airport (LEIB) |
Arrival
| Time | 2026-05-04 19:46 |
|---|---|
| Airport | Palma de Mallorca Airport (LEPA) |
| Time | Latitude | Longitude | Altitude | Speed | Heading |
|---|---|---|---|---|---|
| 2026-05-04 18:57 | 38.87626 | 1.37055 | 9 ft | 0 kts | 333° |
| 2026-05-04 18:59 | 38.87626 | 1.37056 | 9 ft | 0 kts | 333° |
| 2026-05-04 19:03 | 38.87613 | 1.37064 | 9 ft | 2 kts | 333° |
| 2026-05-04 19:03 | 38.87598 | 1.37074 | 8 ft | 2 kts | 333° |
| 2026-05-04 19:03 | 38.87583 | 1.37084 | 10 ft | 2 kts | 333° |
| 2026-05-04 19:03 | 38.87568 | 1.37093 | 11 ft | 2 kts | 9° |
| 2026-05-04 19:04 | 38.87557 | 1.37088 | 8 ft | 0 kts | 53° |
| 2026-05-04 19:04 | 38.87557 | 1.37089 | 8 ft | 0 kts | 53° |
| 2026-05-04 19:05 | 38.87558 | 1.37090 | 11 ft | 0 kts | 53° |
| 2026-05-04 19:06 | 38.87558 | 1.37091 | 11 ft | 0 kts | 53° |
| 2026-05-04 19:07 | 38.87559 | 1.37091 | 11 ft | 0 kts | 53° |
| 2026-05-04 19:08 | 38.87559 | 1.37092 | 12 ft | 0 kts | 53° |
| 2026-05-04 19:09 | 38.87560 | 1.37094 | 8 ft | 1 kts | 53° |
| 2026-05-04 19:09 | 38.87574 | 1.37120 | 10 ft | 5 kts | 59° |
| 2026-05-04 19:09 | 38.87591 | 1.37168 | 10 ft | 7 kts | 65° |
| 2026-05-04 19:09 | 38.87614 | 1.37228 | 8 ft | 8 kts | 63° |
| 2026-05-04 19:10 | 38.87642 | 1.37300 | 8 ft | 10 kts | 62° |
| 2026-05-04 19:10 | 38.87664 | 1.37354 | 10 ft | 11 kts | 63° |
| 2026-05-04 19:10 | 38.87676 | 1.37382 | 8 ft | 2 kts | 63° |
| 2026-05-04 19:10 | 38.87685 | 1.37406 | 8 ft | 4 kts | 63° |
| 2026-05-04 19:11 | 38.87696 | 1.37449 | 8 ft | 6 kts | 86° |
| 2026-05-04 19:11 | 38.87670 | 1.37496 | 8 ft | 8 kts | 148° |
| 2026-05-04 19:11 | 38.87608 | 1.37540 | 9 ft | 12 kts | 151° |
| 2026-05-04 19:11 | 38.87590 | 1.37600 | 9 ft | 9 kts | 69° |
| 2026-05-04 19:12 | 38.87620 | 1.37676 | 9 ft | 10 kts | 62° |
| 2026-05-04 19:12 | 38.87668 | 1.37788 | 10 ft | 3 kts | 60° |
| 2026-05-04 19:12 | 38.87691 | 1.37841 | 9 ft | 11 kts | 61° |
| 2026-05-04 19:13 | 38.87738 | 1.37955 | 9 ft | 18 kts | 63° |
| 2026-05-04 19:13 | 38.87809 | 1.38128 | 9 ft | 25 kts | 62° |
| 2026-05-04 19:13 | 38.87903 | 1.38354 | 9 ft | 32 kts | 61° |
| 2026-05-04 19:13 | 38.87986 | 1.38552 | 9 ft | 20 kts | 51° |
| 2026-05-04 19:14 | 38.87951 | 1.38669 | 10 ft | 20 kts | 150° |
| 2026-05-04 19:14 | 38.87830 | 1.38629 | 11 ft | 23 kts | 243° |
| 2026-05-04 19:14 | 38.87655 | 1.38235 | 16 ft | 92 kts | 241° |
| 2026-05-04 19:14 | 38.87224 | 1.37210 | 24 ft | 164 kts | 236° |
| 2026-05-04 19:15 | 38.86617 | 1.35870 | 662 ft | 177 kts | 233° |
| 2026-05-04 19:15 | 38.85885 | 1.34643 | 1351 ft | 175 kts | 228° |
| 2026-05-04 19:15 | 38.85048 | 1.33437 | 1925 ft | 185 kts | 227° |
| 2026-05-04 19:15 | 38.84178 | 1.32213 | 2764 ft | 187 kts | 229° |
| 2026-05-04 19:16 | 38.83289 | 1.30958 | 3484 ft | 194 kts | 229° |
| 2026-05-04 19:16 | 38.82371 | 1.29655 | 4213 ft | 200 kts | 229° |
| 2026-05-04 19:16 | 38.81372 | 1.28392 | 4971 ft | 205 kts | 218° |
| 2026-05-04 19:16 | 38.80059 | 1.27580 | 5684 ft | 216 kts | 200° |
| 2026-05-04 19:17 | 38.78463 | 1.27421 | 6100 ft | 248 kts | 176° |
| 2026-05-04 19:17 | 38.76675 | 1.27830 | 6506 ft | 272 kts | 174° |
| 2026-05-04 19:17 | 38.74783 | 1.28280 | 7223 ft | 280 kts | 174° |
| 2026-05-04 19:17 | 38.72857 | 1.28740 | 8090 ft | 283 kts | 174° |
| 2026-05-04 19:18 | 38.70919 | 1.29200 | 9017 ft | 284 kts | 174° |
| 2026-05-04 19:18 | 38.68964 | 1.29659 | 9918 ft | 287 kts | 175° |
| 2026-05-04 19:18 | 38.66992 | 1.30117 | 10645 ft | 290 kts | 175° |
| 2026-05-04 19:18 | 38.65002 | 1.30574 | 10915 ft | 291 kts | 175° |
| 2026-05-04 19:19 | 38.63003 | 1.31075 | 10994 ft | 303 kts | 169° |
| 2026-05-04 19:19 | 38.60989 | 1.32212 | 11019 ft | 336 kts | 152° |
| 2026-05-04 19:19 | 38.59222 | 1.34263 | 11018 ft | 352 kts | 131° |
| 2026-05-04 19:19 | 38.58042 | 1.37032 | 11019 ft | 361 kts | 111° |
| 2026-05-04 19:20 | 38.57524 | 1.40185 | 11012 ft | 364 kts | 101° |
| 2026-05-04 19:20 | 38.57125 | 1.43385 | 11015 ft | 364 kts | 101° |
| 2026-05-04 19:20 | 38.56724 | 1.46579 | 11015 ft | 364 kts | 101° |
| 2026-05-04 19:20 | 38.56317 | 1.49777 | 11023 ft | 365 kts | 102° |
| 2026-05-04 19:21 | 38.55909 | 1.52972 | 11016 ft | 365 kts | 101° |
| 2026-05-04 19:21 | 38.55789 | 1.56227 | 11018 ft | 369 kts | 87° |
| 2026-05-04 19:21 | 38.56285 | 1.59449 | 11026 ft | 371 kts | 71° |
| 2026-05-04 19:21 | 38.57378 | 1.62428 | 11025 ft | 371 kts | 56° |
| 2026-05-04 19:22 | 38.58974 | 1.64990 | 11022 ft | 368 kts | 43° |
| 2026-05-04 19:22 | 38.60781 | 1.67310 | 11024 ft | 368 kts | 43° |
| 2026-05-04 19:22 | 38.62590 | 1.69628 | 11027 ft | 368 kts | 43° |
| 2026-05-04 19:22 | 38.64398 | 1.71952 | 11032 ft | 369 kts | 43° |
| 2026-05-04 19:23 | 38.66179 | 1.74251 | 11040 ft | 369 kts | 43° |
| 2026-05-04 19:23 | 38.68005 | 1.76613 | 11032 ft | 368 kts | 43° |
| 2026-05-04 19:23 | 38.69808 | 1.78943 | 11032 ft | 368 kts | 43° |
| 2026-05-04 19:23 | 38.71588 | 1.81240 | 11038 ft | 368 kts | 43° |
| 2026-05-04 19:24 | 38.73388 | 1.83566 | 11048 ft | 368 kts | 43° |
| 2026-05-04 19:24 | 38.75184 | 1.85900 | 11033 ft | 368 kts | 43° |
| 2026-05-04 19:24 | 38.76976 | 1.88232 | 11041 ft | 367 kts | 43° |
| 2026-05-04 19:24 | 38.78769 | 1.90564 | 11035 ft | 367 kts | 43° |
| 2026-05-04 19:25 | 38.80519 | 1.92954 | 11020 ft | 369 kts | 49° |
| 2026-05-04 19:25 | 38.82098 | 1.95547 | 11025 ft | 369 kts | 51° |
| 2026-05-04 19:25 | 38.83678 | 1.98152 | 11014 ft | 370 kts | 51° |
| 2026-05-04 19:25 | 38.85258 | 2.00762 | 11016 ft | 370 kts | 50° |
| 2026-05-04 19:26 | 38.86838 | 2.03370 | 11028 ft | 370 kts | 50° |
| 2026-05-04 19:26 | 38.88419 | 2.05975 | 11039 ft | 370 kts | 51° |
| 2026-05-04 19:26 | 38.90001 | 2.08585 | 11041 ft | 370 kts | 51° |
| 2026-05-04 19:26 | 38.91577 | 2.11194 | 11042 ft | 369 kts | 51° |
| 2026-05-04 19:27 | 38.93149 | 2.13801 | 11044 ft | 369 kts | 51° |
| 2026-05-04 19:27 | 38.94721 | 2.16413 | 11039 ft | 370 kts | 51° |
| 2026-05-04 19:27 | 38.96292 | 2.19021 | 11046 ft | 370 kts | 51° |
| 2026-05-04 19:27 | 38.97845 | 2.21601 | 11047 ft | 370 kts | 51° |
| 2026-05-04 19:28 | 38.99416 | 2.24214 | 11032 ft | 370 kts | 51° |
| 2026-05-04 19:28 | 39.00987 | 2.26826 | 11047 ft | 369 kts | 51° |
| 2026-05-04 19:28 | 39.02558 | 2.29437 | 11040 ft | 369 kts | 51° |
| 2026-05-04 19:28 | 39.04132 | 2.32053 | 11038 ft | 370 kts | 51° |
| 2026-05-04 19:29 | 39.05705 | 2.34673 | 11030 ft | 370 kts | 51° |
| 2026-05-04 19:29 | 39.07281 | 2.37299 | 11028 ft | 370 kts | 51° |
| 2026-05-04 19:29 | 39.08853 | 2.39924 | 11030 ft | 371 kts | 51° |
| 2026-05-04 19:29 | 39.10427 | 2.42554 | 11041 ft | 371 kts | 51° |
| 2026-05-04 19:30 | 39.11997 | 2.45184 | 11051 ft | 371 kts | 51° |
| 2026-05-04 19:30 | 39.13566 | 2.47816 | 11048 ft | 371 kts | 51° |
| 2026-05-04 19:30 | 39.15162 | 2.50419 | 11044 ft | 370 kts | 46° |
| 2026-05-04 19:30 | 39.17037 | 2.52668 | 11045 ft | 367 kts | 34° |
| 2026-05-04 19:31 | 39.19137 | 2.54531 | 11051 ft | 366 kts | 31° |
| 2026-05-04 19:31 | 39.21252 | 2.56362 | 11043 ft | 366 kts | 31° |
| 2026-05-04 19:31 | 39.23368 | 2.58196 | 11053 ft | 366 kts | 31° |
| 2026-05-04 19:31 | 39.25454 | 2.60009 | 11054 ft | 366 kts | 31° |
| 2026-05-04 19:32 | 39.27562 | 2.61848 | 11053 ft | 363 kts | 31° |
| 2026-05-04 19:32 | 39.29609 | 2.63642 | 10906 ft | 350 kts | 31° |
| 2026-05-04 19:32 | 39.31594 | 2.65383 | 10646 ft | 343 kts | 31° |
| 2026-05-04 19:32 | 39.33576 | 2.67116 | 10175 ft | 345 kts | 31° |
| 2026-05-04 19:33 | 39.35564 | 2.68854 | 9688 ft | 346 kts | 31° |
| 2026-05-04 19:33 | 39.37559 | 2.70600 | 9163 ft | 346 kts | 31° |
| 2026-05-04 19:33 | 39.39552 | 2.72351 | 8656 ft | 346 kts | 31° |
| 2026-05-04 19:33 | 39.41538 | 2.74097 | 8261 ft | 342 kts | 32° |
| 2026-05-04 19:34 | 39.43489 | 2.75812 | 7890 ft | 338 kts | 32° |
| 2026-05-04 19:34 | 39.45418 | 2.77546 | 7398 ft | 338 kts | 33° |
| 2026-05-04 19:34 | 39.47328 | 2.79321 | 6937 ft | 337 kts | 33° |
| 2026-05-04 19:34 | 39.49215 | 2.81106 | 6532 ft | 334 kts | 34° |
| 2026-05-04 19:35 | 39.51073 | 2.82870 | 6103 ft | 325 kts | 34° |
| 2026-05-04 19:35 | 39.52854 | 2.84564 | 5676 ft | 311 kts | 34° |
| 2026-05-04 19:35 | 39.54563 | 2.86183 | 5257 ft | 298 kts | 33° |
| 2026-05-04 19:35 | 39.56207 | 2.87735 | 4842 ft | 287 kts | 33° |
| 2026-05-04 19:36 | 39.57770 | 2.89207 | 4418 ft | 277 kts | 33° |
| 2026-05-04 19:36 | 39.59314 | 2.90655 | 3915 ft | 271 kts | 33° |
| 2026-05-04 19:36 | 39.60832 | 2.92078 | 3420 ft | 267 kts | 33° |
| 2026-05-04 19:36 | 39.62323 | 2.93477 | 2920 ft | 263 kts | 33° |
| 2026-05-04 19:37 | 39.63786 | 2.94856 | 2544 ft | 254 kts | 34° |
| 2026-05-04 19:37 | 39.65158 | 2.96154 | 2491 ft | 236 kts | 32° |
| 2026-05-04 19:37 | 39.66425 | 2.97350 | 2510 ft | 216 kts | 33° |
| 2026-05-04 19:37 | 39.67627 | 2.98480 | 2510 ft | 211 kts | 34° |
| 2026-05-04 19:38 | 39.68817 | 2.99595 | 2501 ft | 211 kts | 33° |
| 2026-05-04 19:38 | 39.69999 | 3.00703 | 2499 ft | 209 kts | 34° |
| 2026-05-04 19:38 | 39.71180 | 3.01811 | 2499 ft | 209 kts | 34° |
| 2026-05-04 19:38 | 39.72462 | 3.02639 | 2494 ft | 204 kts | 2° |
| 2026-05-04 19:39 | 39.73783 | 3.02363 | 2500 ft | 188 kts | 324° |
| 2026-05-04 19:39 | 39.74661 | 3.01229 | 2500 ft | 174 kts | 291° |
| 2026-05-04 19:39 | 39.74911 | 2.99749 | 2498 ft | 166 kts | 262° |
| 2026-05-04 19:39 | 39.74552 | 2.98363 | 2499 ft | 163 kts | 234° |
| 2026-05-04 19:40 | 39.73711 | 2.97412 | 2497 ft | 166 kts | 209° |
| 2026-05-04 19:40 | 39.72650 | 2.96793 | 2498 ft | 168 kts | 207° |
| 2026-05-04 19:40 | 39.71580 | 2.96171 | 2502 ft | 168 kts | 208° |
| 2026-05-04 19:40 | 39.70532 | 2.95562 | 2500 ft | 163 kts | 207° |
| 2026-05-04 19:41 | 39.69501 | 2.94962 | 2501 ft | 162 kts | 207° |
| 2026-05-04 19:41 | 39.68468 | 2.94362 | 2514 ft | 162 kts | 207° |
| 2026-05-04 19:41 | 39.67438 | 2.93764 | 2507 ft | 162 kts | 208° |
| 2026-05-04 19:41 | 39.66408 | 2.93163 | 2506 ft | 162 kts | 208° |
| 2026-05-04 19:42 | 39.65385 | 2.92567 | 2501 ft | 161 kts | 208° |
| 2026-05-04 19:42 | 39.64363 | 2.91973 | 2500 ft | 161 kts | 207° |
| 2026-05-04 19:42 | 39.63335 | 2.91375 | 2505 ft | 163 kts | 208° |
| 2026-05-04 19:42 | 39.62398 | 2.90587 | 2477 ft | 157 kts | 227° |
| 2026-05-04 19:43 | 39.61821 | 2.89498 | 2352 ft | 139 kts | 238° |
| 2026-05-04 19:43 | 39.61331 | 2.88456 | 2181 ft | 133 kts | 237° |
| 2026-05-04 19:43 | 39.60859 | 2.87453 | 2027 ft | 129 kts | 237° |
| 2026-05-04 19:43 | 39.60399 | 2.86474 | 1858 ft | 127 kts | 236° |
| 2026-05-04 19:44 | 39.59939 | 2.85499 | 1698 ft | 127 kts | 237° |
| 2026-05-04 19:44 | 39.59480 | 2.84524 | 1520 ft | 127 kts | 238° |
| 2026-05-04 19:44 | 39.59015 | 2.83536 | 1354 ft | 129 kts | 237° |
| 2026-05-04 19:44 | 39.58548 | 2.82546 | 1174 ft | 130 kts | 236° |
| 2026-05-04 19:45 | 39.58071 | 2.81535 | 1000 ft | 134 kts | 238° |
| 2026-05-04 19:45 | 39.57587 | 2.80509 | 818 ft | 131 kts | 237° |
| 2026-05-04 19:45 | 39.57099 | 2.79474 | 642 ft | 137 kts | 236° |
| 2026-05-04 19:45 | 39.56606 | 2.78427 | 462 ft | 138 kts | 238° |
| 2026-05-04 19:46 | 39.56102 | 2.77367 | 248 ft | 139 kts | 237° |
| 2026-05-04 19:46 | 39.55610 | 2.76294 | 109 ft | 138 kts | 237° |
| 2026-05-04 19:46 | 39.55115 | 2.75279 | 41 ft | 122 kts | 236° |
| 2026-05-04 19:46 | 39.54816 | 2.74638 | 37 ft | 40 kts | 242° |
| 2026-05-04 19:47 | 39.54734 | 2.74457 | 38 ft | 21 kts | 239° |
| 2026-05-04 19:47 | 39.54658 | 2.74292 | 38 ft | 22 kts | 239° |
| 2026-05-04 19:47 | 39.54582 | 2.74125 | 37 ft | 21 kts | 250° |
| 2026-05-04 19:47 | 39.54553 | 2.73948 | 38 ft | 12 kts | 266° |
| 2026-05-04 19:48 | 39.54551 | 2.73830 | 38 ft | 14 kts | 270° |
| 2026-05-04 19:48 | 39.54575 | 2.73746 | 38 ft | 9 kts | 346° |
| 2026-05-04 19:48 | 39.54623 | 2.73783 | 37 ft | 8 kts | 51° |
| 2026-05-04 19:48 | 39.54658 | 2.73852 | 38 ft | 11 kts | 58° |
| 2026-05-04 19:49 | 39.54707 | 2.73948 | 38 ft | 14 kts | 40° |
| 2026-05-04 19:49 | 39.54764 | 2.73943 | 38 ft | 6 kts | 342° |
| 2026-05-04 19:49 | 39.54789 | 2.73954 | 38 ft | 5 kts | 34° |
| 2026-05-04 19:49 | 39.54826 | 2.73995 | 38 ft | 9 kts | 19° |
| 2026-05-04 19:50 | 39.54895 | 2.73963 | 38 ft | 13 kts | 328° |
| 2026-05-04 19:50 | 39.54987 | 2.73891 | 38 ft | 18 kts | 329° |
| 2026-05-04 19:50 | 39.55110 | 2.73796 | 38 ft | 23 kts | 329° |
| 2026-05-04 19:50 | 39.55175 | 2.73696 | 38 ft | 13 kts | 253° |
| 2026-05-04 19:51 | 39.55204 | 2.73615 | 38 ft | 13 kts | 329° |
| 2026-05-04 19:51 | 39.55275 | 2.73560 | 38 ft | 6 kts | 329° |
| 2026-05-04 19:51 | 39.55276 | 2.73500 | 37 ft | 7 kts | 242° |
| 2026-05-04 19:51 | 39.55261 | 2.73466 | 37 ft | 2 kts | 239° |
| 2026-05-04 19:52 | 39.55260 | 2.73463 | 37 ft | 0 kts | 239° |